createdAt,value
2019-04-29T00:04:15.266Z,20.08
2019-04-29T00:09:19.529Z,18.37
2019-04-29T00:14:24.093Z,18.35
2019-04-29T00:19:53.172Z,19.25
2019-04-29T00:24:57.431Z,22.17
2019-04-29T00:30:01.684Z,18.12
2019-04-29T00:35:07.484Z,18.77
2019-04-29T00:40:29.587Z,15.55
2019-04-29T00:45:34.040Z,17.12
2019-04-29T00:50:38.283Z,17.67
2019-04-29T00:55:42.626Z,17.98
2019-04-29T01:00:46.984Z,16.90
2019-04-29T01:05:51.338Z,16.27
2019-04-29T01:10:55.537Z,16.23
2019-04-29T01:15:59.931Z,14.93
2019-04-29T01:21:04.208Z,17.75
2019-04-29T01:26:30.205Z,20.70
2019-04-29T01:31:34.484Z,19.27
2019-04-29T01:36:40.570Z,21.48
2019-04-29T01:41:59.011Z,17.75
2019-04-29T01:47:03.279Z,22.48
2019-04-29T01:52:07.528Z,23.77
2019-04-29T01:57:11.724Z,22.50
2019-04-29T02:02:16.004Z,18.23
2019-04-29T02:07:20.222Z,19.10
2019-04-29T02:12:24.503Z,18.62
2019-04-29T02:17:28.784Z,19.65
2019-04-29T02:22:50.299Z,20.37
2019-04-29T02:27:54.572Z,16.57
2019-04-29T02:32:58.854Z,16.80
2019-04-29T02:38:04.713Z,18.62
2019-04-29T02:43:14.250Z,17.27
2019-04-29T02:48:18.540Z,17.02
2019-04-29T02:53:22.810Z,16.60
2019-04-29T02:58:38.999Z,16.45
2019-04-29T03:04:08.027Z,17.55
2019-04-29T03:09:12.311Z,15.10
2019-04-29T03:14:16.794Z,20.20
2019-04-29T03:19:26.327Z,16.95
2019-04-29T03:24:31.121Z,17.27
2019-04-29T03:29:35.421Z,18.50
2019-04-29T03:34:39.773Z,19.10
2019-04-29T03:39:44.115Z,17.27
2019-04-29T03:44:48.391Z,20.15
2019-04-29T03:49:52.666Z,16.52
2019-04-29T03:54:56.942Z,20.40
2019-04-29T04:00:01.410Z,18.45
2019-04-29T04:05:24.710Z,19.75
2019-04-29T04:10:29.022Z,16.20
2019-04-29T04:15:33.283Z,20.30
2019-04-29T04:20:37.675Z,19.02
2019-04-29T04:25:41.997Z,20.10
2019-04-29T04:30:46.285Z,21.05
2019-04-29T04:35:50.582Z,18.30
2019-04-29T04:41:04.103Z,18.45
2019-04-29T04:46:08.380Z,21.48
2019-04-29T04:51:12.690Z,18.48
2019-04-29T04:56:16.952Z,23.18
2019-04-29T05:01:21.217Z,18.92
2019-04-29T05:06:25.478Z,18.87
2019-04-29T05:11:29.773Z,19.15
2019-04-29T05:16:34.078Z,23.47
2019-04-29T05:21:38.386Z,21.73
2019-04-29T05:26:42.648Z,22.62
2019-04-29T05:31:46.949Z,22.13
2019-04-29T05:37:00.668Z,21.23
2019-04-29T05:42:07.751Z,23.92
2019-04-29T05:47:34.448Z,23.18
2019-04-29T05:52:50.956Z,21.37
2019-04-29T05:58:11.374Z,19.42
2019-04-29T06:03:15.631Z,21.73
2019-04-29T06:08:19.887Z,24.87
2019-04-29T06:13:24.329Z,26.40
2019-04-29T06:18:28.629Z,27.73
2019-04-29T06:23:32.905Z,28.62
2019-04-29T06:28:37.194Z,31.40
2019-04-29T06:33:41.478Z,30.50
2019-04-29T06:38:45.734Z,33.05
2019-04-29T06:43:53.116Z,32.55
2019-04-29T06:49:09.055Z,27.30
2019-04-29T06:54:02.040Z,28.27
2019-04-29T06:59:07.591Z,27.75
2019-04-29T07:04:12.364Z,27.45
2019-04-29T07:09:16.680Z,29.02
2019-04-29T07:14:21.016Z,22.58
2019-04-29T07:19:26.618Z,25.82
2019-04-29T07:24:31.220Z,25.65
2019-04-29T07:29:38.013Z,23.07
2019-04-29T07:34:41.484Z,24.40
2019-04-29T07:39:45.753Z,18.42
2019-04-29T07:45:08.255Z,20.30
2019-04-29T07:50:13.258Z,15.78
2019-04-29T07:55:17.625Z,15.50
2019-04-29T08:00:32.186Z,14.45
2019-04-29T08:05:36.680Z,16.93
2019-04-29T08:10:53.605Z,13.93
2019-04-29T08:15:46.990Z,15.05
2019-04-29T08:20:51.267Z,14.83
2019-04-29T08:25:57.538Z,15.00
2019-04-29T08:31:01.563Z,15.32
2019-04-29T08:36:05.941Z,15.45
2019-04-29T08:41:10.164Z,16.25
2019-04-29T08:46:18.545Z,16.55
2019-04-29T08:51:22.833Z,16.50
2019-04-29T08:56:27.118Z,19.67
2019-04-29T09:01:34.166Z,19.40
2019-04-29T09:06:37.439Z,18.98
2019-04-29T09:11:43.642Z,15.35
2019-04-29T09:16:47.703Z,17.87
2019-04-29T09:21:55.956Z,15.43
2019-04-29T09:27:09.693Z,16.12
2019-04-29T09:32:13.202Z,17.07
2019-04-29T09:37:18.617Z,15.05
2019-04-29T09:42:37.148Z,18.10
2019-04-29T09:47:41.471Z,16.42
2019-04-29T09:52:45.907Z,17.90
2019-04-29T09:57:50.175Z,14.15
2019-04-29T10:03:16.194Z,13.35
2019-04-29T10:08:21.654Z,16.23
2019-04-29T10:13:25.920Z,15.28
2019-04-29T10:18:34.700Z,12.10
2019-04-29T10:23:39.338Z,11.83
2019-04-29T10:28:57.321Z,11.95
2019-04-29T10:34:01.719Z,9.50
2019-04-29T10:39:46.580Z,9.75
2019-04-29T10:45:18.354Z,9.15
2019-04-29T10:50:42.749Z,13.62
2019-04-29T10:55:47.021Z,10.90
2019-04-29T11:02:01.312Z,10.23
2019-04-29T11:07:18.742Z,10.28
2019-04-29T11:12:21.589Z,7.83
2019-04-29T11:17:27.491Z,8.23
2019-04-29T11:22:38.389Z,9.30
2019-04-29T11:27:48.164Z,8.43
2019-04-29T11:33:11.624Z,9.08
2019-04-29T11:38:17.525Z,8.53
2019-04-29T11:43:21.971Z,10.35
2019-04-29T11:48:26.261Z,8.25
2019-04-29T11:53:30.525Z,7.95
2019-04-29T11:58:44.079Z,7.53
2019-04-29T12:03:51.451Z,6.50
2019-04-29T12:08:56.627Z,6.05
2019-04-29T12:14:19.096Z,5.40
2019-04-29T12:19:26.581Z,6.72
2019-04-29T12:24:30.891Z,6.95
2019-04-29T12:29:35.162Z,5.25
2019-04-29T12:35:07.471Z,7.55
2019-04-29T12:40:39.882Z,5.40
2019-04-29T12:46:00.896Z,5.62
2019-04-29T12:51:05.288Z,11.22
2019-04-29T12:56:11.351Z,6.75
2019-04-29T13:01:51.281Z,6.58
2019-04-29T13:07:06.887Z,6.12
2019-04-29T13:12:19.425Z,7.58
2019-04-29T13:17:26.512Z,6.60
2019-04-29T13:22:31.777Z,6.67
2019-04-29T13:27:36.135Z,8.18
2019-04-29T13:32:40.380Z,6.35
2019-04-29T13:37:44.645Z,5.30
2019-04-29T13:42:50.903Z,6.25
2019-04-29T13:48:12.171Z,5.62
2019-04-29T13:53:17.218Z,7.67
2019-04-29T13:58:26.974Z,8.58
2019-04-29T14:03:33.609Z,7.80
2019-04-29T14:08:37.794Z,9.40
2019-04-29T14:13:43.651Z,9.73
2019-04-29T14:18:49.761Z,8.53
2019-04-29T14:23:54.067Z,9.78
2019-04-29T14:28:58.343Z,10.78
2019-04-29T14:34:16.467Z,11.75
2019-04-29T14:39:36.106Z,12.98
2019-04-29T14:44:32.971Z,12.40
2019-04-29T14:49:41.979Z,11.53
2019-04-29T14:54:46.272Z,13.65
2019-04-29T14:59:50.761Z,13.93
2019-04-29T15:04:55.244Z,14.40
2019-04-29T15:09:59.468Z,15.35
2019-04-29T15:15:21.441Z,16.35
2019-04-29T15:20:44.725Z,14.53
2019-04-29T15:25:48.992Z,18.70
2019-04-29T15:30:53.165Z,18.62
2019-04-29T15:35:59.829Z,18.32
2019-04-29T15:41:05.401Z,21.37
2019-04-29T15:46:11.286Z,23.30
2019-04-29T15:51:15.284Z,23.18
2019-04-29T16:01:28.007Z,25.70
2019-04-29T16:06:49.135Z,26.20
2019-04-29T16:12:18.243Z,28.07
2019-04-29T16:17:22.544Z,27.60
2019-04-29T16:22:26.856Z,29.42
2019-04-29T16:27:31.257Z,28.57
2019-04-29T16:32:40.162Z,30.92
2019-04-29T16:37:44.536Z,28.15
2019-04-29T16:43:27.388Z,25.57
2019-04-29T16:48:26.399Z,26.75
2019-04-29T16:53:30.701Z,22.77
2019-04-29T16:58:35.044Z,23.75
2019-04-29T17:03:39.462Z,26.57
2019-04-29T17:09:05.387Z,28.23
2019-04-29T17:14:10.461Z,24.70
2019-04-29T17:19:15.503Z,26.17
2019-04-29T17:24:19.791Z,28.38
2019-04-29T17:29:55.635Z,26.87
2019-04-29T17:34:59.956Z,27.07
2019-04-29T17:35:13.770Z,23.02
2019-04-29T17:40:05.007Z,26.12
2019-04-29T17:45:12.379Z,24.35
2019-04-29T17:50:46.126Z,25.97
2019-04-29T17:55:56.035Z,24.23
2019-04-29T18:01:15.363Z,23.25
2019-04-29T18:06:28.338Z,26.07
2019-04-29T18:11:32.817Z,21.48
2019-04-29T18:16:43.686Z,18.82
2019-04-29T18:22:21.180Z,17.35
2019-04-29T18:27:26.172Z,19.32
2019-04-29T18:32:42.087Z,19.48
2019-04-29T18:37:45.379Z,18.60
2019-04-29T18:42:50.311Z,19.55
2019-04-29T18:47:54.608Z,19.40
2019-04-29T18:52:58.978Z,20.25
2019-04-29T18:58:03.320Z,19.98
2019-04-29T19:03:07.658Z,19.17
2019-04-29T19:08:14.779Z,19.70
2019-04-29T19:13:18.420Z,21.02
2019-04-29T19:18:22.764Z,20.10
2019-04-29T19:23:29.652Z,21.85
2019-04-29T19:28:34.682Z,20.90
2019-04-29T19:33:39.557Z,19.10
2019-04-29T19:38:47.268Z,21.33
2019-04-29T19:43:54.950Z,21.62
2019-04-29T19:48:58.210Z,20.92
2019-04-29T19:54:02.385Z,22.37
2019-04-29T19:59:12.154Z,21.57
2019-04-29T20:04:27.429Z,24.95
2019-04-29T20:09:32.848Z,19.92
2019-04-29T20:14:38.314Z,21.97
2019-04-29T20:20:00.322Z,22.62
2019-04-29T20:25:06.354Z,22.20
2019-04-29T20:30:19.334Z,19.50
2019-04-29T20:35:18.385Z,21.95
2019-04-29T20:40:23.091Z,22.45
2019-04-29T20:45:29.066Z,25.45
2019-04-29T20:50:35.260Z,23.42
2019-04-29T20:55:39.801Z,25.88
2019-04-29T21:00:45.226Z,23.83
2019-04-29T21:05:54.948Z,26.77
2019-04-29T21:10:59.027Z,24.52
2019-04-29T21:16:12.111Z,24.60
2019-04-29T21:21:16.429Z,26.80
2019-04-29T21:26:21.811Z,28.07
2019-04-29T21:31:26.164Z,24.98
2019-04-29T21:36:52.176Z,28.20
2019-04-29T21:42:16.072Z,30.08
2019-04-29T21:47:21.627Z,28.57
2019-04-29T21:52:25.932Z,35.90
2019-04-29T21:57:30.220Z,33.83
2019-04-29T22:02:35.779Z,35.15
2019-04-29T22:07:45.984Z,37.08
2019-04-29T22:12:46.405Z,39.75
2019-04-29T22:17:56.380Z,35.08
2019-04-29T22:22:56.705Z,36.63
2019-04-29T22:28:01.459Z,36.77
2019-04-29T22:33:06.081Z,36.70
2019-04-29T22:38:12.747Z,44.53
2019-04-29T22:43:25.451Z,37.70
2019-04-29T22:48:29.846Z,40.58
2019-04-29T22:53:35.760Z,37.00
2019-04-29T22:58:43.879Z,36.10
2019-04-29T23:03:47.116Z,40.28
2019-04-29T23:08:51.607Z,43.25
2019-04-29T23:13:55.894Z,37.35
2019-04-29T23:19:00.196Z,36.45
2019-04-29T23:24:29.493Z,42.98
2019-04-29T23:29:37.063Z,38.90
2019-04-29T23:34:39.874Z,37.78
2019-04-29T23:39:45.689Z,38.58
2019-04-29T23:44:50.021Z,37.28
2019-04-29T23:49:54.326Z,39.25
2019-04-29T23:54:58.682Z,38.88
